createdAt,value
2019-01-23T00:00:47.230Z,45.35
2019-01-23T00:01:54.084Z,43.48
2019-01-23T00:02:58.880Z,43.55
2019-01-23T00:04:03.687Z,42.78
2019-01-23T00:05:08.800Z,41.45
2019-01-23T00:06:13.744Z,49.23
2019-01-23T00:07:18.628Z,76.20
2019-01-23T00:08:23.420Z,76.75
2019-01-23T00:09:29.288Z,78.30
2019-01-23T00:10:34.338Z,89.07
2019-01-23T00:11:39.237Z,91.17
2019-01-23T00:12:44.077Z,67.90
2019-01-23T00:13:48.986Z,69.67
2019-01-23T00:14:53.767Z,79.32
2019-01-23T00:15:58.639Z,83.58
2019-01-23T00:17:03.515Z,66.30
2019-01-23T00:18:08.541Z,64.00
2019-01-23T00:19:13.449Z,62.53
2019-01-23T00:20:18.394Z,62.00
2019-01-23T00:21:23.395Z,62.15
2019-01-23T00:22:28.412Z,70.67
2019-01-23T00:23:33.172Z,71.82
2019-01-23T00:24:38.073Z,72.95
2019-01-23T00:25:43.101Z,83.00
2019-01-23T00:26:47.973Z,85.32
2019-01-23T00:27:52.813Z,73.65
2019-01-23T00:28:57.700Z,70.95
2019-01-23T00:30:02.608Z,61.30
2019-01-23T00:31:07.488Z,54.33
2019-01-23T00:32:15.499Z,52.10
2019-01-23T00:33:20.608Z,49.73
2019-01-23T00:34:25.493Z,49.70
2019-01-23T00:35:30.395Z,46.35
2019-01-23T00:36:35.392Z,45.67
2019-01-23T00:37:40.499Z,44.55
2019-01-23T00:38:45.885Z,43.05
2019-01-23T00:39:50.740Z,44.20
2019-01-23T00:40:55.497Z,42.33
2019-01-23T00:42:00.408Z,40.95
2019-01-23T00:43:05.468Z,42.03
2019-01-23T00:44:10.218Z,41.53
2019-01-23T00:45:15.324Z,41.30
2019-01-23T00:46:20.120Z,42.65
2019-01-23T00:47:25.103Z,42.88
2019-01-23T00:48:30.032Z,44.93
2019-01-23T00:49:35.029Z,43.20
2019-01-23T00:50:39.996Z,45.35
2019-01-23T00:51:45.008Z,44.98
2019-01-23T00:52:49.868Z,43.80
2019-01-23T00:53:55.417Z,45.40
2019-01-23T00:55:00.219Z,43.10
2019-01-23T00:56:05.323Z,42.90
2019-01-23T00:57:10.362Z,40.83
2019-01-23T00:58:15.279Z,44.08
2019-01-23T00:59:20.079Z,43.52
2019-01-23T01:00:26.264Z,41.15
2019-01-23T01:01:31.239Z,42.43
2019-01-23T01:02:36.063Z,42.60
2019-01-23T01:03:40.968Z,43.65
2019-01-23T01:04:45.808Z,40.63
2019-01-23T01:05:50.716Z,42.75
2019-01-23T01:06:55.662Z,44.50
2019-01-23T01:08:00.612Z,41.88
2019-01-23T01:09:09.113Z,43.70
2019-01-23T01:10:15.210Z,40.10
2019-01-23T01:11:20.890Z,42.33
2019-01-23T01:12:25.737Z,43.50
2019-01-23T01:13:30.803Z,43.92
2019-01-23T01:14:35.689Z,43.13
2019-01-23T01:15:40.548Z,42.53
2019-01-23T01:16:45.322Z,44.67
2019-01-23T01:17:50.124Z,45.48
2019-01-23T01:18:55.016Z,45.03
2019-01-23T01:19:59.900Z,44.80
2019-01-23T01:21:04.807Z,41.53
2019-01-23T01:22:09.611Z,43.95
2019-01-23T01:23:14.684Z,43.58
2019-01-23T01:24:19.427Z,43.55
2019-01-23T01:25:24.324Z,44.95
2019-01-23T01:26:29.222Z,45.58
2019-01-23T01:27:34.120Z,46.33
2019-01-23T01:28:39.067Z,43.73
2019-01-23T01:29:43.969Z,44.53
2019-01-23T01:30:48.724Z,43.95
2019-01-23T01:31:53.596Z,44.30
2019-01-23T01:32:58.500Z,45.28
2019-01-23T01:34:03.408Z,45.33
2019-01-23T01:35:08.291Z,43.45
2019-01-23T01:36:13.199Z,46.45
2019-01-23T01:37:18.051Z,45.33
2019-01-23T01:38:22.955Z,47.25
2019-01-23T01:39:27.945Z,48.73
2019-01-23T01:40:32.691Z,46.95
2019-01-23T01:41:37.628Z,46.40
2019-01-23T01:42:42.548Z,47.67
2019-01-23T01:43:47.467Z,47.58
2019-01-23T01:44:52.260Z,45.23
2019-01-23T01:45:57.052Z,42.75
2019-01-23T01:47:01.933Z,44.95
2019-01-23T01:48:07.184Z,44.45
2019-01-23T01:49:11.963Z,45.12
2019-01-23T01:50:21.281Z,43.42
2019-01-23T01:51:26.297Z,44.13
2019-01-23T01:52:32.427Z,45.12
2019-01-23T01:53:37.217Z,47.60
2019-01-23T01:54:42.088Z,46.18
2019-01-23T01:55:46.838Z,43.87
2019-01-23T01:56:54.936Z,46.00
2019-01-23T01:58:02.140Z,47.27
2019-01-23T01:59:06.963Z,44.98
2019-01-23T02:00:22.359Z,46.45
2019-01-23T02:01:27.319Z,45.35
2019-01-23T02:02:32.046Z,45.70
2019-01-23T02:03:36.902Z,47.10
2019-01-23T02:04:41.834Z,46.53
2019-01-23T02:05:46.734Z,46.77
2019-01-23T02:06:51.659Z,47.43
2019-01-23T02:07:56.539Z,47.35
2019-01-23T02:09:01.337Z,45.50
2019-01-23T02:10:08.096Z,46.40
2019-01-23T02:11:12.960Z,45.20
2019-01-23T02:12:17.696Z,46.70
2019-01-23T02:13:23.688Z,45.65
2019-01-23T02:14:28.701Z,45.92
2019-01-23T02:15:33.591Z,47.70
2019-01-23T02:16:38.321Z,50.05
2019-01-23T02:17:43.295Z,48.28
2019-01-23T02:18:48.223Z,50.10
2019-01-23T02:19:53.064Z,49.73
2019-01-23T02:20:58.277Z,47.33
2019-01-23T02:22:03.188Z,47.85
2019-01-23T02:23:08.177Z,46.37
2019-01-23T02:24:13.103Z,47.38
2019-01-23T02:25:18.325Z,45.83
2019-01-23T02:26:23.220Z,47.70
2019-01-23T02:27:27.978Z,46.13
2019-01-23T02:28:32.883Z,48.65
2019-01-23T02:29:37.814Z,47.85
2019-01-23T02:30:42.763Z,46.25
2019-01-23T02:31:47.513Z,47.53
2019-01-23T02:32:52.388Z,49.05
2019-01-23T02:33:57.364Z,48.70
2019-01-23T02:35:02.123Z,48.30
2019-01-23T02:36:07.060Z,47.73
2019-01-23T02:37:12.101Z,47.83
2019-01-23T02:38:16.980Z,47.98
2019-01-23T02:39:21.887Z,46.45
2019-01-23T02:40:26.699Z,46.30
2019-01-23T02:41:31.525Z,47.45
2019-01-23T02:42:36.308Z,46.75
2019-01-23T02:43:41.226Z,45.17
2019-01-23T02:44:46.025Z,47.35
2019-01-23T02:45:50.796Z,46.15
2019-01-23T02:46:55.692Z,45.38
2019-01-23T02:48:03.175Z,47.88
2019-01-23T02:49:08.084Z,46.42
2019-01-23T02:50:14.222Z,46.85
2019-01-23T02:51:19.081Z,47.00
2019-01-23T02:52:23.845Z,47.55
2019-01-23T02:53:29.852Z,47.62
2019-01-23T02:54:34.745Z,47.08
2019-01-23T02:55:39.649Z,46.05
2019-01-23T02:56:44.407Z,46.50
2019-01-23T02:57:49.206Z,45.20
2019-01-23T02:58:54.088Z,44.83
2019-01-23T02:59:59.000Z,47.53
2019-01-23T03:01:04.032Z,47.05
2019-01-23T03:02:08.962Z,48.10
2019-01-23T03:03:13.861Z,47.10
2019-01-23T03:04:18.756Z,48.55
2019-01-23T03:05:23.724Z,45.98
2019-01-23T03:06:28.488Z,46.00
2019-01-23T03:07:33.386Z,49.90
2019-01-23T03:08:38.294Z,47.70
2019-01-23T03:09:43.169Z,49.08
2019-01-23T03:10:47.947Z,46.50
2019-01-23T03:11:52.741Z,47.17
2019-01-23T03:12:57.597Z,45.95
2019-01-23T03:14:02.566Z,48.20
2019-01-23T03:15:09.054Z,49.13
2019-01-23T03:16:13.817Z,46.30
2019-01-23T03:17:18.560Z,45.83
2019-01-23T03:18:23.329Z,45.40
2019-01-23T03:19:28.356Z,45.30
2019-01-23T03:20:33.260Z,48.98
2019-01-23T03:21:38.012Z,51.28
2019-01-23T03:22:42.791Z,48.95
2019-01-23T03:23:47.836Z,47.93
2019-01-23T03:24:52.652Z,46.50
2019-01-23T03:25:57.408Z,46.58
2019-01-23T03:27:02.190Z,47.48
2019-01-23T03:28:07.089Z,48.13
2019-01-23T03:29:12.014Z,47.25
2019-01-23T03:30:19.278Z,46.95
2019-01-23T03:31:24.129Z,47.40
2019-01-23T03:32:29.251Z,46.02
2019-01-23T03:33:34.077Z,47.40
2019-01-23T03:34:38.905Z,49.13
2019-01-23T03:35:43.975Z,47.93
2019-01-23T03:36:48.909Z,46.20
2019-01-23T03:37:53.877Z,47.15
2019-01-23T03:38:58.632Z,46.88
2019-01-23T03:40:03.584Z,47.80
2019-01-23T03:41:08.536Z,48.80
2019-01-23T03:42:13.350Z,47.48
2019-01-23T03:43:18.128Z,46.00
2019-01-23T03:44:23.032Z,48.83
2019-01-23T03:45:27.948Z,45.00
2019-01-23T03:46:32.913Z,45.78
2019-01-23T03:47:37.833Z,45.80
2019-01-23T03:48:42.703Z,44.88
2019-01-23T03:49:47.476Z,45.17
2019-01-23T03:50:52.349Z,44.03
2019-01-23T03:51:57.236Z,43.95
2019-01-23T03:53:02.230Z,43.85
2019-01-23T03:54:07.123Z,41.13
2019-01-23T03:55:12.541Z,43.73
2019-01-23T03:56:17.400Z,43.58
2019-01-23T03:57:22.182Z,46.92
2019-01-23T03:58:27.021Z,42.33
2019-01-23T03:59:32.313Z,43.28
2019-01-23T04:00:37.336Z,42.25
2019-01-23T04:01:42.085Z,43.42
2019-01-23T04:02:48.572Z,41.18
2019-01-23T04:03:53.473Z,42.48
2019-01-23T04:04:58.367Z,42.48
2019-01-23T04:06:03.145Z,42.48
2019-01-23T04:07:08.016Z,42.30
2019-01-23T04:08:12.900Z,42.85
2019-01-23T04:09:17.788Z,41.33
2019-01-23T04:10:22.696Z,40.95
2019-01-23T04:11:27.700Z,42.23
2019-01-23T04:12:32.593Z,42.70
2019-01-23T04:13:37.342Z,42.80
2019-01-23T04:14:42.288Z,44.70
2019-01-23T04:15:47.154Z,42.27
2019-01-23T04:16:51.944Z,42.55
2019-01-23T04:17:56.853Z,43.15
2019-01-23T04:19:01.689Z,42.03
2019-01-23T04:20:10.388Z,44.98
2019-01-23T04:21:15.170Z,43.95
2019-01-23T04:22:19.904Z,44.70
2019-01-23T04:23:24.816Z,45.65
2019-01-23T04:24:29.600Z,43.10
2019-01-23T04:25:34.573Z,44.15
2019-01-23T04:26:39.353Z,44.48
2019-01-23T04:27:44.265Z,43.58
2019-01-23T04:28:49.148Z,44.18
2019-01-23T04:29:54.198Z,46.00
2019-01-23T04:30:58.940Z,44.77
2019-01-23T04:32:03.902Z,43.23
2019-01-23T04:33:08.900Z,43.02
2019-01-23T04:34:15.089Z,42.75
2019-01-23T04:35:21.364Z,40.63
2019-01-23T04:36:26.262Z,42.75
2019-01-23T04:37:31.300Z,40.50
2019-01-23T04:38:36.286Z,40.88
2019-01-23T04:39:41.046Z,41.70
2019-01-23T04:40:45.959Z,41.60
2019-01-23T04:41:50.954Z,42.15
2019-01-23T04:42:55.856Z,42.25
2019-01-23T04:44:00.652Z,43.08
2019-01-23T04:45:07.227Z,41.25
2019-01-23T04:46:11.988Z,40.98
2019-01-23T04:47:16.792Z,40.92
2019-01-23T04:48:22.727Z,40.83
2019-01-23T04:49:27.608Z,41.92
2019-01-23T04:50:34.103Z,43.42
2019-01-23T04:51:54.018Z,43.52
2019-01-23T04:53:09.442Z,42.23
2019-01-23T04:54:16.502Z,42.27
2019-01-23T04:55:21.374Z,40.58
2019-01-23T04:56:26.362Z,44.83
2019-01-23T04:57:31.268Z,44.27
2019-01-23T04:58:36.073Z,43.52
2019-01-23T04:59:46.798Z,43.87
2019-01-23T05:00:47.389Z,44.25
2019-01-23T05:01:52.257Z,47.00
2019-01-23T05:02:57.176Z,45.92
2019-01-23T05:04:02.213Z,45.67
2019-01-23T05:05:07.872Z,47.35
2019-01-23T05:06:12.828Z,47.93
2019-01-23T05:07:17.652Z,47.73
2019-01-23T05:08:22.549Z,48.83
2019-01-23T05:09:27.441Z,49.58
2019-01-23T05:10:32.332Z,50.38
2019-01-23T05:11:38.404Z,54.13
2019-01-23T05:12:45.045Z,48.68
2019-01-23T05:13:49.947Z,47.88
2019-01-23T05:14:54.732Z,47.38
2019-01-23T05:15:59.648Z,47.88
2019-01-23T05:17:06.838Z,44.98
2019-01-23T05:18:11.667Z,45.80
2019-01-23T05:19:16.431Z,44.50
2019-01-23T05:20:21.366Z,47.10
2019-01-23T05:21:26.160Z,47.50
2019-01-23T05:22:32.299Z,45.48
2019-01-23T05:23:37.175Z,45.43
2019-01-23T05:24:41.989Z,45.38
2019-01-23T05:25:49.093Z,45.43
2019-01-23T05:26:53.981Z,43.10
2019-01-23T05:27:58.944Z,46.08
2019-01-23T05:29:03.729Z,45.55
2019-01-23T05:30:12.854Z,42.83
2019-01-23T05:31:17.708Z,43.05
2019-01-23T05:32:22.714Z,45.10
2019-01-23T05:33:27.632Z,46.37
2019-01-23T05:34:32.785Z,46.20
2019-01-23T05:35:37.694Z,44.50
2019-01-23T05:36:42.583Z,47.00
2019-01-23T05:37:47.632Z,44.30
2019-01-23T05:38:52.624Z,45.83
2019-01-23T05:39:57.451Z,43.58
2019-01-23T05:41:02.344Z,46.00
2019-01-23T05:42:07.247Z,45.10
2019-01-23T05:43:12.358Z,46.08
2019-01-23T05:44:17.343Z,48.75
2019-01-23T05:45:24.953Z,46.65
2019-01-23T05:46:29.914Z,45.60
2019-01-23T05:47:34.880Z,46.88
2019-01-23T05:48:39.815Z,44.10
2019-01-23T05:49:44.720Z,41.92
2019-01-23T05:50:49.639Z,43.13
2019-01-23T05:51:54.632Z,43.20
2019-01-23T05:52:59.513Z,41.63
2019-01-23T05:54:04.729Z,39.92
2019-01-23T05:55:11.044Z,38.88
2019-01-23T05:56:15.893Z,40.63
2019-01-23T05:57:20.849Z,38.35
2019-01-23T05:58:25.843Z,38.95
2019-01-23T05:59:32.775Z,38.88
2019-01-23T06:00:37.724Z,37.90
2019-01-23T06:01:42.590Z,38.45
2019-01-23T06:02:47.619Z,41.33
2019-01-23T06:03:52.584Z,37.38
2019-01-23T06:04:57.479Z,41.18
2019-01-23T06:06:02.390Z,41.92
2019-01-23T06:07:09.961Z,41.23
2019-01-23T06:08:15.109Z,42.40
2019-01-23T06:09:20.024Z,44.27
2019-01-23T06:10:26.203Z,42.35
2019-01-23T06:11:31.096Z,42.03
2019-01-23T06:12:36.011Z,44.10
2019-01-23T06:13:41.062Z,43.33
2019-01-23T06:14:46.229Z,44.45
2019-01-23T06:15:51.183Z,42.58
2019-01-23T06:16:56.284Z,45.67
2019-01-23T06:18:01.164Z,44.60
2019-01-23T06:19:06.112Z,44.90
2019-01-23T06:20:13.609Z,43.08
2019-01-23T06:21:18.464Z,44.85
2019-01-23T06:22:23.367Z,46.65
2019-01-23T06:23:28.443Z,45.52
2019-01-23T06:24:33.539Z,47.45
2019-01-23T06:25:38.605Z,44.98
2019-01-23T06:26:43.548Z,45.98
2019-01-23T06:27:48.923Z,47.53
2019-01-23T06:28:55.282Z,46.33
2019-01-23T06:30:10.289Z,47.15
2019-01-23T06:31:15.196Z,46.50
2019-01-23T06:32:23.524Z,51.15
2019-01-23T06:33:33.367Z,48.08
2019-01-23T06:34:41.677Z,50.40
2019-01-23T06:35:53.277Z,49.65
2019-01-23T06:36:58.201Z,52.45
2019-01-23T06:38:02.976Z,49.85
2019-01-23T06:39:09.579Z,48.60
2019-01-23T06:40:15.123Z,49.90
2019-01-23T06:41:20.055Z,54.05
2019-01-23T06:42:24.892Z,51.18
2019-01-23T06:43:29.985Z,54.13
2019-01-23T06:44:35.170Z,53.00
2019-01-23T06:45:40.236Z,54.42
2019-01-23T06:46:45.224Z,52.45
2019-01-23T06:47:50.812Z,53.73
2019-01-23T06:48:56.861Z,51.70
2019-01-23T06:50:02.412Z,51.28
2019-01-23T06:51:07.505Z,53.33
2019-01-23T06:52:12.708Z,51.68
2019-01-23T06:53:18.094Z,54.77
2019-01-23T06:54:30.406Z,53.00
2019-01-23T06:55:36.741Z,50.17
2019-01-23T06:56:41.808Z,50.35
2019-01-23T06:57:46.897Z,53.05
2019-01-23T06:58:52.047Z,51.02
2019-01-23T06:59:57.367Z,47.65
2019-01-23T07:01:02.755Z,49.55
2019-01-23T07:02:08.602Z,47.60
2019-01-23T07:03:14.173Z,50.23
2019-01-23T07:04:19.699Z,50.58
2019-01-23T07:05:25.559Z,51.20
2019-01-23T07:06:32.456Z,51.15
2019-01-23T07:07:37.438Z,52.83
2019-01-23T07:08:42.757Z,53.42
2019-01-23T07:09:49.023Z,53.92
2019-01-23T07:10:56.362Z,51.88
2019-01-23T07:12:01.291Z,53.25
2019-01-23T07:13:06.282Z,52.30
2019-01-23T07:14:11.186Z,55.95
2019-01-23T07:15:16.405Z,54.18
2019-01-23T07:16:21.316Z,53.60
2019-01-23T07:17:28.395Z,53.50
2019-01-23T07:18:33.455Z,52.98
2019-01-23T07:19:38.328Z,56.35
2019-01-23T07:20:43.377Z,58.65
2019-01-23T07:21:48.395Z,55.40
2019-01-23T07:22:53.521Z,54.23
2019-01-23T07:23:58.601Z,55.15
2019-01-23T07:25:03.628Z,55.75
2019-01-23T07:26:08.820Z,53.68
2019-01-23T07:27:13.806Z,53.38
2019-01-23T07:28:18.937Z,53.87
2019-01-23T07:29:23.935Z,51.68
2019-01-23T07:30:40.623Z,51.28
2019-01-23T07:31:45.407Z,54.00
2019-01-23T07:32:51.731Z,53.73
2019-01-23T07:33:56.809Z,54.88
2019-01-23T07:35:01.853Z,54.70
2019-01-23T07:36:07.199Z,55.63
2019-01-23T07:37:12.274Z,54.90
2019-01-23T07:38:20.149Z,54.18
2019-01-23T07:39:25.635Z,57.10
2019-01-23T07:40:30.846Z,54.23
2019-01-23T07:41:35.875Z,53.17
2019-01-23T07:42:40.758Z,52.35
2019-01-23T07:43:45.649Z,50.40
2019-01-23T07:44:55.163Z,51.35
2019-01-23T07:46:00.560Z,51.58
2019-01-23T07:47:05.904Z,52.10
2019-01-23T07:48:10.865Z,51.55
2019-01-23T07:49:15.791Z,51.15
2019-01-23T07:50:21.087Z,50.30
2019-01-23T07:51:26.056Z,50.12
2019-01-23T07:52:33.596Z,47.88
2019-01-23T07:53:40.071Z,50.75
2019-01-23T07:54:45.826Z,46.42
2019-01-23T07:55:50.823Z,49.93
2019-01-23T07:56:55.876Z,49.70
2019-01-23T07:58:01.607Z,49.40
2019-01-23T07:59:06.757Z,49.88
2019-01-23T08:00:14.965Z,52.17
2019-01-23T08:01:21.806Z,50.40
2019-01-23T08:02:27.436Z,48.90
2019-01-23T08:03:32.477Z,53.02
2019-01-23T08:04:37.621Z,50.28
2019-01-23T08:05:42.753Z,53.70
2019-01-23T08:06:47.753Z,49.30
2019-01-23T08:07:56.277Z,50.28
2019-01-23T08:09:01.336Z,50.63
2019-01-23T08:10:08.073Z,53.02
2019-01-23T08:11:13.180Z,51.55
2019-01-23T08:12:18.480Z,48.78
2019-01-23T08:13:24.240Z,51.65
2019-01-23T08:14:29.782Z,48.73
2019-01-23T08:15:37.158Z,49.88
2019-01-23T08:16:42.465Z,50.20
2019-01-23T08:17:47.763Z,49.40
2019-01-23T08:18:52.675Z,51.10
2019-01-23T08:19:57.817Z,50.12
2019-01-23T08:21:04.273Z,49.30
2019-01-23T08:22:09.442Z,49.15
2019-01-23T08:23:15.770Z,50.43
2019-01-23T08:24:21.064Z,49.95
2019-01-23T08:25:26.607Z,48.45
2019-01-23T08:26:32.010Z,46.45
2019-01-23T08:27:37.048Z,48.83
2019-01-23T08:28:42.126Z,47.45
2019-01-23T08:29:47.259Z,49.77
2019-01-23T08:30:52.441Z,47.70
2019-01-23T08:31:57.429Z,50.48
2019-01-23T08:33:02.983Z,49.20
2019-01-23T08:34:07.942Z,50.43
2019-01-23T08:35:13.324Z,46.98
2019-01-23T08:36:20.689Z,59.98
2019-01-23T08:37:25.751Z,55.78
2019-01-23T08:38:31.038Z,46.80
2019-01-23T08:39:37.405Z,48.00
2019-01-23T08:40:42.885Z,49.67
2019-01-23T08:41:48.247Z,48.70
2019-01-23T08:42:54.850Z,43.68
2019-01-23T08:44:00.231Z,45.38
2019-01-23T08:45:06.674Z,44.15
2019-01-23T08:46:12.186Z,44.38
2019-01-23T08:47:17.166Z,45.20
2019-01-23T08:48:22.430Z,45.85
2019-01-23T08:49:28.496Z,46.08
2019-01-23T08:50:44.754Z,44.03
2019-01-23T08:51:50.239Z,46.88
2019-01-23T08:52:55.286Z,46.30
2019-01-23T08:54:00.519Z,47.05
2019-01-23T08:55:06.153Z,47.17
2019-01-23T08:56:11.284Z,47.25
2019-01-23T08:57:16.287Z,47.05
2019-01-23T08:58:21.503Z,46.40
2019-01-23T08:59:26.586Z,45.38
2019-01-23T09:00:32.147Z,47.55
2019-01-23T09:01:37.198Z,44.93
2019-01-23T09:02:42.484Z,44.95
2019-01-23T09:03:49.368Z,45.92
2019-01-23T09:04:56.217Z,47.38
2019-01-23T09:06:01.492Z,44.73
2019-01-23T09:07:08.230Z,47.03
2019-01-23T09:08:13.494Z,44.10
2019-01-23T09:09:21.100Z,45.50
2019-01-23T09:10:26.457Z,44.33
2019-01-23T09:11:31.549Z,43.08
2019-01-23T09:12:36.548Z,43.52
2019-01-23T09:13:41.642Z,40.58
2019-01-23T09:14:46.722Z,40.90
2019-01-23T09:15:51.809Z,43.08
2019-01-23T09:16:56.909Z,44.00
2019-01-23T09:18:02.063Z,39.25
2019-01-23T09:19:07.517Z,42.03
2019-01-23T09:20:13.450Z,42.25
2019-01-23T09:21:18.534Z,42.08
2019-01-23T09:22:23.759Z,40.73
2019-01-23T09:23:28.975Z,39.25
2019-01-23T09:24:34.472Z,39.48
2019-01-23T09:25:39.542Z,39.92
2019-01-23T09:26:44.576Z,43.98
2019-01-23T09:27:51.102Z,41.45
2019-01-23T09:28:56.009Z,40.33
2019-01-23T09:30:01.401Z,39.15
2019-01-23T09:31:55.868Z,39.13
2019-01-23T09:34:00.360Z,36.65
2019-01-23T09:35:32.041Z,36.03
2019-01-23T09:37:36.036Z,36.08
2019-01-23T09:39:15.104Z,36.77
2019-01-23T09:40:38.712Z,36.77
2019-01-23T09:42:14.544Z,35.48
2019-01-23T09:44:02.227Z,36.38
2019-01-23T09:45:42.576Z,32.30
2019-01-23T09:47:10.855Z,33.18
2019-01-23T09:48:30.880Z,34.15
2019-01-23T09:50:15.677Z,35.43
2019-01-23T09:51:56.305Z,34.30
2019-01-23T09:53:32.546Z,34.10
2019-01-23T09:54:38.128Z,32.95
2019-01-23T09:55:44.469Z,35.05
2019-01-23T09:56:50.788Z,36.42
2019-01-23T09:57:59.185Z,37.80
2019-01-23T09:59:04.308Z,35.92
2019-01-23T10:00:13.746Z,35.45
2019-01-23T10:01:18.967Z,36.90
2019-01-23T10:02:23.909Z,37.25
2019-01-23T10:03:28.946Z,37.35
2019-01-23T10:04:35.554Z,34.63
2019-01-23T10:05:43.345Z,34.43
2019-01-23T10:06:48.254Z,32.73
2019-01-23T10:07:53.463Z,33.60
2019-01-23T10:08:58.736Z,36.60
2019-01-23T10:10:03.781Z,35.90
2019-01-23T10:11:10.385Z,36.40
2019-01-23T10:12:15.675Z,34.88
2019-01-23T10:13:22.406Z,32.80
2019-01-23T10:14:27.723Z,33.58
2019-01-23T10:16:05.328Z,32.73
2019-01-23T10:17:10.773Z,37.67
2019-01-23T10:18:16.319Z,35.17
2019-01-23T10:19:23.256Z,33.28
2019-01-23T10:20:30.392Z,33.05
2019-01-23T10:21:35.806Z,30.62
2019-01-23T10:22:40.934Z,31.00
2019-01-23T10:23:49.172Z,32.48
2019-01-23T10:24:54.472Z,32.53
2019-01-23T10:25:59.838Z,32.30
2019-01-23T10:27:05.224Z,31.15
2019-01-23T10:28:10.300Z,31.52
2019-01-23T10:29:17.791Z,32.42
2019-01-23T10:30:23.202Z,33.13
2019-01-23T10:31:28.540Z,33.35
2019-01-23T10:32:33.893Z,31.07
2019-01-23T10:33:39.062Z,31.80
2019-01-23T10:34:44.174Z,31.77
2019-01-23T10:35:49.385Z,33.00
2019-01-23T10:36:54.753Z,32.08
2019-01-23T10:37:59.879Z,31.82
2019-01-23T10:39:07.453Z,30.77
2019-01-23T10:40:16.850Z,31.45
2019-01-23T10:41:25.649Z,29.27
2019-01-23T10:42:33.381Z,30.92
2019-01-23T10:43:40.129Z,31.97
2019-01-23T10:44:45.254Z,38.85
2019-01-23T10:45:50.771Z,31.15
2019-01-23T10:46:55.996Z,29.40
2019-01-23T10:48:01.153Z,32.83
2019-01-23T10:49:06.507Z,35.68
2019-01-23T10:50:14.460Z,34.18
2019-01-23T10:51:19.810Z,31.48
2019-01-23T10:52:25.157Z,37.23
2019-01-23T10:53:32.862Z,34.00
2019-01-23T10:54:42.444Z,30.88
2019-01-23T10:55:47.398Z,27.75
2019-01-23T10:56:53.601Z,28.50
2019-01-23T10:58:01.224Z,28.73
2019-01-23T10:59:06.495Z,28.62
2019-01-23T11:00:14.979Z,27.73
2019-01-23T11:01:20.405Z,27.25
2019-01-23T11:02:25.626Z,27.52
2019-01-23T11:03:30.893Z,28.85
2019-01-23T11:04:37.096Z,33.70
2019-01-23T11:05:42.527Z,35.40
2019-01-23T11:06:47.822Z,29.35
2019-01-23T11:07:53.086Z,27.60
2019-01-23T11:08:58.440Z,27.98
2019-01-23T11:10:03.785Z,29.00
2019-01-23T11:11:10.367Z,27.45
2019-01-23T11:12:15.587Z,28.90
2019-01-23T11:13:20.881Z,29.18
2019-01-23T11:14:26.145Z,28.07
2019-01-23T11:15:31.485Z,29.40
2019-01-23T11:16:39.394Z,29.90
2019-01-23T11:17:44.915Z,28.15
2019-01-23T11:18:50.299Z,25.60
2019-01-23T11:19:55.656Z,27.80
2019-01-23T11:21:01.439Z,24.35
2019-01-23T11:22:07.201Z,26.20
2019-01-23T11:23:12.690Z,23.42
2019-01-23T11:24:18.218Z,24.12
2019-01-23T11:25:23.543Z,24.27
2019-01-23T11:26:28.768Z,26.10
2019-01-23T11:27:34.037Z,26.12
2019-01-23T11:28:42.363Z,24.67
2019-01-23T11:29:47.517Z,28.90
2019-01-23T11:30:53.216Z,26.02
2019-01-23T11:31:58.812Z,25.43
2019-01-23T11:33:04.289Z,23.00
2019-01-23T11:34:09.735Z,22.22
2019-01-23T11:35:15.697Z,24.82
2019-01-23T11:36:21.088Z,25.43
2019-01-23T11:37:26.204Z,24.43
2019-01-23T11:38:31.665Z,23.20
2019-01-23T11:39:36.944Z,23.52
2019-01-23T11:40:42.325Z,22.30
2019-01-23T11:41:47.540Z,21.45
2019-01-23T11:42:52.709Z,20.27
2019-01-23T11:43:57.956Z,21.80
2019-01-23T11:45:04.030Z,22.40
2019-01-23T11:46:09.173Z,22.85
2019-01-23T11:47:14.344Z,21.05
2019-01-23T11:48:19.683Z,19.57
2019-01-23T11:49:25.145Z,20.90
2019-01-23T11:50:30.360Z,22.05
2019-01-23T11:51:35.662Z,19.65
2019-01-23T11:52:40.851Z,21.15
2019-01-23T11:53:46.027Z,19.80
2019-01-23T11:54:51.196Z,20.57
2019-01-23T11:55:56.612Z,22.55
2019-01-23T11:57:01.771Z,20.60
2019-01-23T11:58:07.029Z,20.08
2019-01-23T11:59:12.282Z,19.82
2019-01-23T12:00:19.951Z,19.45
2019-01-23T12:01:27.669Z,20.15
2019-01-23T12:02:33.875Z,21.00
2019-01-23T12:03:38.962Z,20.30
2019-01-23T12:04:44.055Z,20.15
2019-01-23T12:05:49.230Z,18.82
2019-01-23T12:06:54.543Z,19.45
2019-01-23T12:08:00.006Z,20.30
2019-01-23T12:09:08.605Z,20.00
2019-01-23T12:10:16.675Z,20.05
2019-01-23T12:11:22.565Z,20.12
2019-01-23T12:12:28.126Z,21.23
2019-01-23T12:13:33.256Z,21.55
2019-01-23T12:14:38.478Z,20.60
2019-01-23T12:15:43.757Z,20.25
2019-01-23T12:16:48.968Z,20.23
2019-01-23T12:17:55.004Z,19.67
2019-01-23T12:18:59.959Z,19.45
2019-01-23T12:20:06.053Z,19.77
2019-01-23T12:21:11.449Z,20.77
2019-01-23T12:22:16.637Z,21.65
2019-01-23T12:23:22.097Z,19.25
2019-01-23T12:24:27.633Z,19.40
2019-01-23T12:25:38.827Z,19.35
2019-01-23T12:26:44.140Z,20.40
2019-01-23T12:27:49.329Z,20.45
2019-01-23T12:28:54.668Z,19.73
2019-01-23T12:29:59.996Z,19.77
2019-01-23T12:31:05.127Z,18.98
2019-01-23T12:32:10.414Z,18.67
2019-01-23T12:33:15.649Z,18.20
2019-01-23T12:34:21.319Z,18.62
2019-01-23T12:35:26.782Z,17.65
2019-01-23T12:36:31.910Z,17.65
2019-01-23T12:37:37.144Z,17.02
2019-01-23T12:38:42.169Z,17.25
2019-01-23T12:39:47.665Z,18.23
2019-01-23T12:40:52.717Z,18.00
2019-01-23T12:41:57.924Z,18.23
2019-01-23T12:43:03.144Z,18.77
2019-01-23T12:44:08.695Z,18.02
2019-01-23T12:45:19.881Z,18.60
2019-01-23T12:46:24.998Z,16.93
2019-01-23T12:47:30.121Z,18.12
2019-01-23T12:48:35.277Z,17.45
2019-01-23T12:49:43.366Z,18.62
2019-01-23T12:50:48.626Z,16.85
2019-01-23T12:51:53.739Z,17.65
2019-01-23T12:53:00.090Z,17.10
2019-01-23T12:54:05.247Z,17.27
2019-01-23T12:55:10.938Z,18.15
2019-01-23T12:56:18.452Z,16.62
2019-01-23T12:57:24.262Z,17.27
2019-01-23T12:58:29.280Z,16.30
2019-01-23T12:59:34.699Z,17.52
2019-01-23T13:00:40.137Z,16.67
2019-01-23T13:01:46.957Z,16.05
2019-01-23T13:02:52.584Z,14.33
2019-01-23T13:03:57.848Z,15.93
2019-01-23T13:05:04.369Z,18.20
2019-01-23T13:06:09.748Z,16.17
2019-01-23T13:07:15.580Z,15.93
2019-01-23T13:08:20.961Z,15.85
2019-01-23T13:09:26.326Z,16.45
2019-01-23T13:10:31.908Z,17.77
2019-01-23T13:11:37.338Z,15.70
2019-01-23T13:12:42.670Z,16.87
2019-01-23T13:13:48.169Z,16.77
2019-01-23T13:14:53.572Z,16.85
2019-01-23T13:15:59.143Z,15.98
2019-01-23T13:17:04.926Z,17.80
2019-01-23T13:18:10.557Z,18.98
2019-01-23T13:19:15.816Z,19.80
2019-01-23T13:20:22.637Z,17.35
2019-01-23T13:21:28.195Z,17.95
2019-01-23T13:22:33.685Z,18.50
2019-01-23T13:23:39.105Z,15.45
2019-01-23T13:24:44.486Z,17.12
2019-01-23T13:25:49.854Z,18.45
2019-01-23T13:26:55.360Z,22.40
2019-01-23T13:28:02.615Z,22.45
2019-01-23T13:29:07.728Z,22.85
2019-01-23T13:30:16.247Z,22.30
2019-01-23T13:31:21.548Z,19.98
2019-01-23T13:32:28.803Z,18.77
2019-01-23T13:33:34.601Z,17.62
2019-01-23T13:34:40.084Z,17.50
2019-01-23T13:35:45.276Z,19.75
2019-01-23T13:36:50.510Z,19.02
2019-01-23T13:37:55.887Z,18.30
2019-01-23T13:39:01.028Z,19.45
2019-01-23T13:40:10.345Z,18.52
2019-01-23T13:41:15.726Z,17.77
2019-01-23T13:42:20.900Z,17.50
2019-01-23T13:43:26.244Z,19.25
2019-01-23T13:44:31.307Z,19.02
2019-01-23T13:45:36.495Z,17.85
2019-01-23T13:46:42.169Z,17.92
2019-01-23T13:47:47.619Z,18.60
2019-01-23T13:48:53.234Z,18.00
2019-01-23T13:49:58.568Z,18.15
2019-01-23T13:51:03.697Z,19.15
2019-01-23T13:52:09.137Z,19.05
2019-01-23T13:53:14.489Z,18.17
2019-01-23T13:54:19.596Z,19.10
2019-01-23T13:55:25.821Z,21.70
2019-01-23T13:56:34.085Z,20.85
2019-01-23T13:57:39.417Z,20.75
2019-01-23T13:58:44.566Z,21.23
2019-01-23T13:59:49.602Z,20.15
2019-01-23T14:00:55.048Z,21.60
2019-01-23T14:02:00.265Z,20.72
2019-01-23T14:03:06.192Z,22.27
2019-01-23T14:04:11.337Z,21.20
2019-01-23T14:05:17.144Z,22.98
2019-01-23T14:06:22.403Z,26.35
2019-01-23T14:07:27.801Z,23.38
2019-01-23T14:08:33.038Z,24.10
2019-01-23T14:09:38.477Z,22.60
2019-01-23T14:10:43.832Z,23.27
2019-01-23T14:11:48.955Z,21.73
2019-01-23T14:12:54.635Z,23.10